createdAt,value
2018-10-04T00:00:04.704Z,12.79
2018-10-04T00:01:04.685Z,12.83
2018-10-04T00:02:04.665Z,12.86
2018-10-04T00:03:04.650Z,12.79
2018-10-04T00:04:04.631Z,12.76
2018-10-04T00:05:04.614Z,12.58
2018-10-04T00:06:04.602Z,12.62
2018-10-04T00:07:04.582Z,12.50
2018-10-04T00:08:04.564Z,12.48
2018-10-04T00:09:04.548Z,12.44
2018-10-04T00:10:04.529Z,12.55
2018-10-04T00:11:04.521Z,12.59
2018-10-04T00:12:04.497Z,12.71
2018-10-04T00:13:04.482Z,12.72
2018-10-04T00:14:04.466Z,12.83
2018-10-04T00:15:04.445Z,12.84
2018-10-04T00:16:04.428Z,12.98
2018-10-04T00:17:04.411Z,12.93
2018-10-04T00:18:04.394Z,12.88
2018-10-04T00:19:04.379Z,13.02
2018-10-04T00:20:04.368Z,12.88
2018-10-04T00:21:04.345Z,12.93
2018-10-04T00:22:04.325Z,12.98
2018-10-04T00:23:04.310Z,13.02
2018-10-04T00:24:04.295Z,12.93
2018-10-04T00:25:04.275Z,13.06
2018-10-04T00:26:04.265Z,12.99
2018-10-04T00:27:04.243Z,13.01
2018-10-04T00:28:04.229Z,12.99
2018-10-04T00:29:04.210Z,12.90
2018-10-04T00:30:04.193Z,12.98
2018-10-04T00:31:04.182Z,12.87
2018-10-04T00:32:04.159Z,12.96
2018-10-04T00:33:04.150Z,13.01
2018-10-04T00:34:04.126Z,12.95
2018-10-04T00:35:04.119Z,13.02
2018-10-04T00:36:04.099Z,12.96
2018-10-04T00:37:04.075Z,13.01
2018-10-04T00:38:04.055Z,13.04
2018-10-04T00:39:04.050Z,13.01
2018-10-04T00:40:04.024Z,12.93
2018-10-04T00:41:04.004Z,13.01
2018-10-04T00:42:03.993Z,13.01
2018-10-04T00:43:03.975Z,12.93
2018-10-04T00:44:03.959Z,13.08
2018-10-04T00:45:03.938Z,12.98
2018-10-04T00:46:04.017Z,13.01
2018-10-04T00:47:03.906Z,13.04
2018-10-04T00:48:03.898Z,13.04
2018-10-04T00:49:03.873Z,12.96
2018-10-04T00:50:03.857Z,12.96
2018-10-04T00:51:03.844Z,13.02
2018-10-04T00:52:03.819Z,13.04
2018-10-04T00:53:03.802Z,12.95
2018-10-04T00:54:03.785Z,12.81
2018-10-04T00:55:03.768Z,12.81
2018-10-04T00:56:03.752Z,12.81
2018-10-04T00:57:03.734Z,12.73
2018-10-04T00:58:03.720Z,12.72
2018-10-04T00:59:03.704Z,12.68
2018-10-04T01:00:03.683Z,12.76
2018-10-04T01:01:03.667Z,12.68
2018-10-04T01:02:03.652Z,12.66
2018-10-04T01:03:03.633Z,12.80
2018-10-04T01:04:03.619Z,12.81
2018-10-04T01:05:03.679Z,12.81
2018-10-04T01:06:03.584Z,12.86
2018-10-04T01:07:03.567Z,12.86
2018-10-04T01:08:03.554Z,12.87
2018-10-04T01:09:03.532Z,12.99
2018-10-04T01:10:03.516Z,13.01
2018-10-04T01:11:03.500Z,13.02
2018-10-04T01:12:03.486Z,12.98
2018-10-04T01:13:03.469Z,13.01
2018-10-04T01:14:03.453Z,13.02
2018-10-04T01:15:03.432Z,12.87
2018-10-04T01:16:03.417Z,12.88
2018-10-04T01:17:03.397Z,12.81
2018-10-04T01:18:03.380Z,12.79
2018-10-04T01:19:03.362Z,12.80
2018-10-04T01:20:03.346Z,12.86
2018-10-04T01:21:03.327Z,12.91
2018-10-04T01:22:03.313Z,12.87
2018-10-04T01:23:03.294Z,13.01
2018-10-04T01:24:03.279Z,12.91
2018-10-04T01:25:03.262Z,13.01
2018-10-04T01:26:03.244Z,12.96
2018-10-04T01:27:03.228Z,12.95
2018-10-04T01:28:03.212Z,12.99
2018-10-04T01:29:03.196Z,12.98
2018-10-04T01:30:03.178Z,12.96
2018-10-04T01:31:03.161Z,12.99
2018-10-04T01:32:03.143Z,12.95
2018-10-04T01:33:03.125Z,12.95
2018-10-04T01:34:03.110Z,12.88
2018-10-04T01:35:03.090Z,12.91
2018-10-04T01:36:03.076Z,12.84
2018-10-04T01:37:03.059Z,12.80
2018-10-04T01:38:03.044Z,12.86
2018-10-04T01:39:03.026Z,12.93
2018-10-04T01:40:03.009Z,12.93
2018-10-04T01:41:02.990Z,13.02
2018-10-04T01:42:02.974Z,12.96
2018-10-04T01:43:02.958Z,12.93
2018-10-04T01:44:02.940Z,13.01
2018-10-04T01:45:02.924Z,13.06
2018-10-04T01:46:02.906Z,12.95
2018-10-04T01:47:02.889Z,12.88
2018-10-04T01:48:02.873Z,12.87
2018-10-04T01:49:02.855Z,12.95
2018-10-04T01:50:02.839Z,12.99
2018-10-04T01:51:02.821Z,12.93
2018-10-04T01:52:02.808Z,13.04
2018-10-04T01:53:02.789Z,13.02
2018-10-04T01:54:02.770Z,12.98
2018-10-04T01:55:02.762Z,12.90
2018-10-04T01:56:02.738Z,12.91
2018-10-04T01:57:02.726Z,13.01
2018-10-04T01:58:02.701Z,12.91
2018-10-04T01:59:02.686Z,12.95
2018-10-04T02:00:02.669Z,12.72
2018-10-04T02:01:02.651Z,12.68
2018-10-04T02:02:02.635Z,12.69
2018-10-04T02:03:02.616Z,12.68
2018-10-04T02:04:02.604Z,12.63
2018-10-04T02:05:02.589Z,12.62
2018-10-04T02:06:02.571Z,12.62
2018-10-04T02:07:02.552Z,12.55
2018-10-04T02:08:02.537Z,12.61
2018-10-04T02:09:02.516Z,12.59
2018-10-04T02:10:02.500Z,12.62
2018-10-04T02:11:02.483Z,12.61
2018-10-04T02:12:02.493Z,12.59
2018-10-04T02:13:02.452Z,12.71
2018-10-04T02:14:02.431Z,12.69
2018-10-04T02:15:02.419Z,12.50
2018-10-04T02:16:02.400Z,12.58
2018-10-04T02:17:02.389Z,12.62
2018-10-04T02:18:02.363Z,12.48
2018-10-04T02:19:02.343Z,12.50
2018-10-04T02:20:02.330Z,12.62
2018-10-04T02:21:02.309Z,12.61
2018-10-04T02:22:02.291Z,12.54
2018-10-04T02:23:02.277Z,12.58
2018-10-04T02:24:02.258Z,12.55
2018-10-04T02:25:02.242Z,12.46
2018-10-04T02:26:02.223Z,12.44
2018-10-04T02:27:02.208Z,12.59
2018-10-04T02:28:02.197Z,12.55
2018-10-04T02:29:02.173Z,12.50
2018-10-04T02:30:02.156Z,12.59
2018-10-04T02:31:02.142Z,12.65
2018-10-04T02:32:02.121Z,12.63
2018-10-04T02:33:02.108Z,12.63
2018-10-04T02:34:02.089Z,12.62
2018-10-04T02:35:02.071Z,12.63
2018-10-04T02:36:02.053Z,12.76
2018-10-04T02:37:02.035Z,12.76
2018-10-04T02:38:02.021Z,12.66
2018-10-04T02:39:02.013Z,12.59
2018-10-04T02:40:01.989Z,12.55
2018-10-04T02:41:01.968Z,12.61
2018-10-04T02:42:01.954Z,12.63
2018-10-04T02:43:01.932Z,12.58
2018-10-04T02:44:01.915Z,12.59
2018-10-04T02:45:01.902Z,12.62
2018-10-04T02:46:01.878Z,12.66
2018-10-04T02:47:01.863Z,12.76
2018-10-04T02:48:01.890Z,12.76
2018-10-04T02:49:01.831Z,12.81
2018-10-04T02:50:01.814Z,12.83
2018-10-04T02:51:01.802Z,12.98
2018-10-04T02:52:01.786Z,12.99
2018-10-04T02:53:01.760Z,12.98
2018-10-04T02:54:01.746Z,12.96
2018-10-04T02:55:01.728Z,13.02
2018-10-04T02:56:01.711Z,12.98
2018-10-04T02:57:01.701Z,12.96
2018-10-04T02:58:01.684Z,12.87
2018-10-04T02:59:01.662Z,12.93
2018-10-04T03:00:01.650Z,12.87
2018-10-04T03:01:01.624Z,12.88
2018-10-04T03:02:01.608Z,12.87
2018-10-04T03:03:01.589Z,12.86
2018-10-04T03:04:01.585Z,12.88
2018-10-04T03:05:01.556Z,12.90
2018-10-04T03:06:01.541Z,12.90
2018-10-04T03:07:01.529Z,13.01
2018-10-04T03:08:01.510Z,13.04
2018-10-04T03:09:01.487Z,13.01
2018-10-04T03:10:01.470Z,12.99
2018-10-04T03:11:01.454Z,12.93
2018-10-04T03:12:01.444Z,12.98
2018-10-04T03:13:01.416Z,12.99
2018-10-04T03:14:01.398Z,12.99
2018-10-04T03:15:01.391Z,13.06
2018-10-04T03:16:01.364Z,12.96
2018-10-04T03:17:01.353Z,12.99
2018-10-04T03:18:01.331Z,12.91
2018-10-04T03:19:01.315Z,12.86
2018-10-04T03:20:01.357Z,12.83
2018-10-04T03:21:01.277Z,12.77
2018-10-04T03:22:01.263Z,12.63
2018-10-04T03:23:01.243Z,12.65
2018-10-04T03:24:01.226Z,12.76
2018-10-04T03:25:01.216Z,12.66
2018-10-04T03:26:01.191Z,12.72
2018-10-04T03:27:01.175Z,12.76
2018-10-04T03:28:01.160Z,12.72
2018-10-04T03:29:01.146Z,12.87
2018-10-04T03:30:01.130Z,12.66
2018-10-04T03:31:01.109Z,12.66
2018-10-04T03:32:01.089Z,12.63
2018-10-04T03:33:01.075Z,12.66
2018-10-04T03:34:01.054Z,12.73
2018-10-04T03:35:01.037Z,12.72
2018-10-04T03:36:01.021Z,12.80
2018-10-04T03:37:01.003Z,12.77
2018-10-04T03:38:00.985Z,12.84
2018-10-04T03:39:00.964Z,12.79
2018-10-04T03:40:00.953Z,12.81
2018-10-04T03:41:00.931Z,12.81
2018-10-04T03:42:00.917Z,12.83
2018-10-04T03:43:00.899Z,12.81
2018-10-04T03:44:00.886Z,12.83
2018-10-04T03:45:00.862Z,12.84
2018-10-04T03:46:00.843Z,12.90
2018-10-04T03:47:00.827Z,12.90
2018-10-04T03:48:00.813Z,12.95
2018-10-04T03:49:00.806Z,12.98
2018-10-04T03:50:00.778Z,12.93
2018-10-04T03:51:00.760Z,12.96
2018-10-04T03:52:00.742Z,12.88
2018-10-04T03:53:00.723Z,12.84
2018-10-04T03:54:00.720Z,12.87
2018-10-04T03:55:00.688Z,12.86
2018-10-04T03:56:00.673Z,12.83
2018-10-04T03:57:00.656Z,12.88
2018-10-04T03:58:00.641Z,12.88
2018-10-04T03:59:00.619Z,12.91
2018-10-04T04:00:00.605Z,12.95
2018-10-04T04:01:00.586Z,12.96
2018-10-04T04:02:00.570Z,12.90
2018-10-04T04:03:00.556Z,13.04
2018-10-04T04:04:00.566Z,12.95
2018-10-04T04:05:00.520Z,13.04
2018-10-04T04:06:00.504Z,13.09
2018-10-04T04:07:00.493Z,13.13
2018-10-04T04:08:00.470Z,13.05
2018-10-04T04:09:00.448Z,12.96
2018-10-04T04:10:00.432Z,12.96
2018-10-04T04:11:00.416Z,12.86
2018-10-04T04:12:00.397Z,12.77
2018-10-04T04:13:00.381Z,12.72
2018-10-04T04:14:00.363Z,12.81
2018-10-04T04:15:00.349Z,12.68
2018-10-04T04:16:00.330Z,12.73
2018-10-04T04:17:00.316Z,12.66
2018-10-04T04:18:00.295Z,12.72
2018-10-04T04:19:00.277Z,12.72
2018-10-04T04:20:00.261Z,12.76
2018-10-04T04:21:00.250Z,12.69
2018-10-04T04:22:00.224Z,12.72
2018-10-04T04:23:00.210Z,12.76
2018-10-04T04:24:00.198Z,12.72
2018-10-04T04:25:00.281Z,12.76
2018-10-04T04:26:00.156Z,12.68
2018-10-04T04:27:00.165Z,12.66
2018-10-04T04:28:00.129Z,12.66
2018-10-04T04:29:00.104Z,12.62
2018-10-04T04:30:00.090Z,12.65
2018-10-04T04:31:00.076Z,12.66
2018-10-04T04:32:00.132Z,12.68
2018-10-04T04:33:00.049Z,12.76
2018-10-04T04:34:00.019Z,12.73
2018-10-04T04:35:00.005Z,12.80
2018-10-04T04:35:59.986Z,12.88
2018-10-04T04:36:59.971Z,12.91
2018-10-04T04:37:59.950Z,12.95
2018-10-04T04:38:59.935Z,12.95
2018-10-04T04:39:59.921Z,13.06
2018-10-04T04:40:59.961Z,13.05
2018-10-04T04:41:59.884Z,12.93
2018-10-04T04:42:59.870Z,13.02
2018-10-04T04:43:59.851Z,12.96
2018-10-04T04:44:59.830Z,12.91
2018-10-04T04:45:59.815Z,12.87
2018-10-04T04:46:59.826Z,12.83
2018-10-04T04:47:59.780Z,12.76
2018-10-04T04:48:59.763Z,12.77
2018-10-04T04:49:59.756Z,12.66
2018-10-04T04:50:59.735Z,12.62
2018-10-04T04:51:59.713Z,12.68
2018-10-04T04:52:59.904Z,12.73
2018-10-04T04:53:59.679Z,12.68
2018-10-04T04:54:59.669Z,12.65
2018-10-04T04:55:59.648Z,12.63
2018-10-04T04:56:59.631Z,12.66
2018-10-04T04:57:59.614Z,12.69
2018-10-04T04:58:59.595Z,12.63
2018-10-04T04:59:59.575Z,12.63
2018-10-04T05:00:59.559Z,12.66
2018-10-04T05:01:59.542Z,12.53
2018-10-04T05:02:59.527Z,12.58
2018-10-04T05:03:59.523Z,12.50
2018-10-04T05:04:59.494Z,12.51
2018-10-04T05:05:59.503Z,12.41
2018-10-04T05:06:59.457Z,12.44
2018-10-04T05:07:59.444Z,12.61
2018-10-04T05:08:59.427Z,12.58
2018-10-04T05:09:59.408Z,12.62
2018-10-04T05:10:59.393Z,12.54
2018-10-04T05:11:59.372Z,12.69
2018-10-04T05:12:59.358Z,12.66
2018-10-04T05:13:59.340Z,12.63
2018-10-04T05:14:59.323Z,12.77
2018-10-04T05:15:59.341Z,12.79
2018-10-04T05:16:59.290Z,12.79
2018-10-04T05:17:59.276Z,12.72
2018-10-04T05:18:59.257Z,12.76
2018-10-04T05:19:59.242Z,12.79
2018-10-04T05:20:59.218Z,12.69
2018-10-04T05:21:59.207Z,12.66
2018-10-04T05:22:59.190Z,12.63
2018-10-04T05:23:59.170Z,12.69
2018-10-04T05:24:59.167Z,12.68
2018-10-04T05:25:59.134Z,12.69
2018-10-04T05:26:59.118Z,12.68
2018-10-04T05:27:59.206Z,12.73
2018-10-04T05:28:59.083Z,12.72
2018-10-04T05:29:59.065Z,12.65
2018-10-04T05:30:59.050Z,12.65
2018-10-04T05:31:59.032Z,12.65
2018-10-04T05:32:59.012Z,12.73
2018-10-04T05:33:58.994Z,12.72
2018-10-04T05:34:58.979Z,12.62
2018-10-04T05:35:58.961Z,12.68
2018-10-04T05:36:59.041Z,12.65
2018-10-04T05:37:58.932Z,12.62
2018-10-04T05:38:58.908Z,12.72
2018-10-04T05:39:58.892Z,12.83
2018-10-04T05:40:58.903Z,12.83
2018-10-04T05:41:58.861Z,12.84
2018-10-04T05:42:58.842Z,12.72
2018-10-04T05:43:58.824Z,12.72
2018-10-04T05:44:58.833Z,12.76
2018-10-04T05:45:58.793Z,12.76
2018-10-04T05:46:58.773Z,12.76
2018-10-04T05:47:58.757Z,12.83
2018-10-04T05:48:58.737Z,12.87
2018-10-04T05:49:58.727Z,12.80
2018-10-04T05:50:58.713Z,12.86
2018-10-04T05:51:58.687Z,12.73
2018-10-04T05:52:58.704Z,12.62
2018-10-04T05:53:58.656Z,12.68
2018-10-04T05:54:58.636Z,12.76
2018-10-04T05:55:58.622Z,12.63
2018-10-04T05:56:58.649Z,12.71
2018-10-04T05:57:58.581Z,12.61
2018-10-04T05:58:58.620Z,12.69
2018-10-04T05:59:58.549Z,12.65
2018-10-04T06:00:58.532Z,12.65
2018-10-04T06:01:58.515Z,12.79
2018-10-04T06:02:58.504Z,12.83
2018-10-04T06:03:58.482Z,12.79
2018-10-04T06:04:58.561Z,12.86
2018-10-04T06:05:58.450Z,12.93
2018-10-04T06:06:58.433Z,12.99
2018-10-04T06:07:58.414Z,13.01
2018-10-04T06:08:58.395Z,12.99
2018-10-04T06:09:58.380Z,12.95
2018-10-04T06:10:58.362Z,12.95
2018-10-04T06:11:58.343Z,12.91
2018-10-04T06:12:58.328Z,12.99
2018-10-04T06:13:58.310Z,13.04
2018-10-04T06:14:58.373Z,13.04
2018-10-04T06:15:58.279Z,13.01
2018-10-04T06:16:58.263Z,13.19
2018-10-04T06:17:58.246Z,13.11
2018-10-04T06:18:58.223Z,13.16
2018-10-04T06:19:58.208Z,13.16
2018-10-04T06:20:58.194Z,13.17
2018-10-04T06:21:58.255Z,13.16
2018-10-04T06:22:58.160Z,13.21
2018-10-04T06:23:58.141Z,13.27
2018-10-04T06:24:58.122Z,13.23
2018-10-04T06:25:58.109Z,13.38
2018-10-04T06:26:58.090Z,13.29
2018-10-04T06:27:58.074Z,13.32
2018-10-04T06:28:58.069Z,13.35
2018-10-04T06:29:58.039Z,13.32
2018-10-04T06:30:58.026Z,13.36
2018-10-04T06:31:58.017Z,13.32
2018-10-04T06:32:57.991Z,13.21
2018-10-04T06:33:57.972Z,13.19
2018-10-04T06:34:58.033Z,13.16
2018-10-04T06:35:57.937Z,13.20
2018-10-04T06:36:57.920Z,13.16
2018-10-04T06:37:57.904Z,13.24
2018-10-04T06:38:57.885Z,13.11
2018-10-04T06:39:57.898Z,13.14
2018-10-04T06:40:57.853Z,13.19
2018-10-04T06:41:57.844Z,13.17
2018-10-04T06:42:57.824Z,13.20
2018-10-04T06:43:57.845Z,13.09
2018-10-04T06:44:57.788Z,13.13
2018-10-04T06:45:57.772Z,13.14
2018-10-04T06:46:57.754Z,13.14
2018-10-04T06:47:57.734Z,13.29
2018-10-04T06:48:57.725Z,13.29
2018-10-04T06:49:57.701Z,13.27
2018-10-04T06:50:57.689Z,13.40
2018-10-04T06:51:57.668Z,13.38
2018-10-04T06:52:57.648Z,13.32
2018-10-04T06:53:57.635Z,13.35
2018-10-04T06:54:57.617Z,13.38
2018-10-04T06:55:57.601Z,13.49
2018-10-04T06:56:57.584Z,13.49
2018-10-04T06:57:57.644Z,13.40
2018-10-04T06:58:57.553Z,13.47
2018-10-04T06:59:57.534Z,13.46
2018-10-04T07:00:57.514Z,13.47
2018-10-04T07:01:57.500Z,13.49
2018-10-04T07:02:57.483Z,13.58
2018-10-04T07:03:57.479Z,13.54
2018-10-04T07:04:57.455Z,13.51
2018-10-04T07:05:57.434Z,13.60
2018-10-04T07:06:57.415Z,13.57
2018-10-04T07:07:57.401Z,13.58
2018-10-04T07:08:57.389Z,13.60
2018-10-04T07:09:57.414Z,13.61
2018-10-04T07:10:57.348Z,13.64
2018-10-04T07:11:57.334Z,13.58
2018-10-04T07:12:57.325Z,13.55
2018-10-04T07:13:57.301Z,13.54
2018-10-04T07:14:57.284Z,13.54
2018-10-04T07:15:57.275Z,13.57
2018-10-04T07:16:57.251Z,13.54
2018-10-04T07:17:57.234Z,13.49
2018-10-04T07:18:57.218Z,13.60
2018-10-04T07:19:57.208Z,13.57
2018-10-04T07:20:57.252Z,13.67
2018-10-04T07:21:57.167Z,13.71
2018-10-04T07:22:57.155Z,13.71
2018-10-04T07:23:57.139Z,13.73
2018-10-04T07:24:57.115Z,13.86
2018-10-04T07:25:57.105Z,13.67
2018-10-04T07:26:57.085Z,13.72
2018-10-04T07:27:57.067Z,13.68
2018-10-04T07:28:57.054Z,13.75
2018-10-04T07:29:57.036Z,13.75
2018-10-04T07:30:57.020Z,13.72
2018-10-04T07:31:57.012Z,13.71
2018-10-04T07:32:56.988Z,13.75
2018-10-04T07:33:56.974Z,13.72
2018-10-04T07:34:57.031Z,13.71
2018-10-04T07:35:56.940Z,13.72
2018-10-04T07:36:56.922Z,13.72
2018-10-04T07:37:56.910Z,13.75
2018-10-04T07:38:56.889Z,13.72
2018-10-04T07:39:56.870Z,13.73
2018-10-04T07:40:56.854Z,13.58
2018-10-04T07:41:56.875Z,13.60
2018-10-04T07:42:56.827Z,13.55
2018-10-04T07:43:56.817Z,13.58
2018-10-04T07:44:56.787Z,13.60
2018-10-04T07:45:56.773Z,13.57
2018-10-04T07:46:56.763Z,13.58
2018-10-04T07:47:56.744Z,13.55
2018-10-04T07:48:56.721Z,13.47
2018-10-04T07:49:56.713Z,13.58
2018-10-04T07:50:56.688Z,13.54
2018-10-04T07:51:56.673Z,13.60
2018-10-04T07:52:56.663Z,13.64
2018-10-04T07:53:56.637Z,13.57
2018-10-04T07:54:56.623Z,13.58
2018-10-04T07:55:56.605Z,13.58
2018-10-04T07:56:56.585Z,13.64
2018-10-04T07:57:56.568Z,13.67
2018-10-04T07:58:56.552Z,13.72
2018-10-04T07:59:56.591Z,13.73
2018-10-04T08:00:56.539Z,13.71
2018-10-04T08:01:56.506Z,13.73
2018-10-04T08:02:56.482Z,13.68
2018-10-04T08:03:56.467Z,13.63
2018-10-04T08:04:56.454Z,13.72
2018-10-04T08:05:56.548Z,13.73
2018-10-04T08:06:56.416Z,13.78
2018-10-04T08:07:56.400Z,13.71
2018-10-04T08:08:56.385Z,13.68
2018-10-04T08:09:56.366Z,13.71
2018-10-04T08:10:56.351Z,13.76
2018-10-04T08:11:56.334Z,13.75
2018-10-04T08:12:56.315Z,13.72
2018-10-04T08:13:56.299Z,13.68
2018-10-04T08:14:56.281Z,13.76
2018-10-04T08:15:56.275Z,13.78
2018-10-04T08:16:56.246Z,13.80
2018-10-04T08:17:56.231Z,13.83
2018-10-04T08:18:56.215Z,13.85
2018-10-04T08:19:56.202Z,13.86
2018-10-04T08:20:56.192Z,13.83
2018-10-04T08:21:56.176Z,13.80
2018-10-04T08:22:56.146Z,13.90
2018-10-04T08:23:56.132Z,13.90
2018-10-04T08:24:56.114Z,13.96
2018-10-04T08:25:56.097Z,13.98
2018-10-04T08:26:56.080Z,14.03
2018-10-04T08:27:56.067Z,14.12
2018-10-04T08:28:56.046Z,14.13
2018-10-04T08:29:56.032Z,14.19
2018-10-04T08:30:56.017Z,14.16
2018-10-04T08:31:56.001Z,14.13
2018-10-04T08:32:55.980Z,14.15
2018-10-04T08:33:55.966Z,14.23
2018-10-04T08:34:55.951Z,14.27
2018-10-04T08:35:55.934Z,14.31
2018-10-04T08:36:55.920Z,14.38
2018-10-04T08:37:55.900Z,14.37
2018-10-04T08:38:55.885Z,14.45
2018-10-04T08:39:55.865Z,14.34
2018-10-04T08:40:55.850Z,14.37
2018-10-04T08:41:55.864Z,14.41
2018-10-04T08:42:55.820Z,14.45
2018-10-04T08:43:55.799Z,14.49
2018-10-04T08:44:55.785Z,14.49
2018-10-04T08:45:55.771Z,14.55
2018-10-04T08:46:55.761Z,14.56
2018-10-04T08:47:55.742Z,14.67
2018-10-04T08:48:55.722Z,14.77
2018-10-04T08:49:55.706Z,14.74
2018-10-04T08:50:55.693Z,14.83
2018-10-04T08:51:55.684Z,14.83
2018-10-04T08:52:55.656Z,14.92
2018-10-04T08:53:55.639Z,15.01
2018-10-04T08:54:55.633Z,14.96
2018-10-04T08:55:55.609Z,14.89
2018-10-04T08:56:55.594Z,14.86
2018-10-04T08:57:55.579Z,14.90
2018-10-04T08:58:55.560Z,14.86
2018-10-04T08:59:55.555Z,14.82
2018-10-04T09:00:55.536Z,14.87
2018-10-04T09:01:55.516Z,14.83
2018-10-04T09:02:55.509Z,14.86
2018-10-04T09:03:55.485Z,14.87
2018-10-04T09:04:55.467Z,14.83
2018-10-04T09:05:55.451Z,14.82
2018-10-04T09:06:55.440Z,14.86
2018-10-04T09:07:55.461Z,14.90
2018-10-04T09:08:55.401Z,14.96
2018-10-04T09:09:55.385Z,15.04
2018-10-04T09:10:55.375Z,15.10
2018-10-04T09:11:55.354Z,15.08
2018-10-04T09:12:55.338Z,15.01
2018-10-04T09:13:55.324Z,14.95
2018-10-04T09:14:55.306Z,14.96
2018-10-04T09:15:55.292Z,14.97
2018-10-04T09:16:55.282Z,15.03
2018-10-04T09:17:55.259Z,15.04
2018-10-04T09:18:55.253Z,15.14
2018-10-04T09:19:55.230Z,15.19
2018-10-04T09:20:55.211Z,15.22
2018-10-04T09:21:55.201Z,15.27
2018-10-04T09:22:55.199Z,15.35
2018-10-04T09:23:55.168Z,15.29
2018-10-04T09:24:55.163Z,15.23
2018-10-04T09:25:55.144Z,15.25
2018-10-04T09:26:55.117Z,15.15
2018-10-04T09:27:55.104Z,15.10
2018-10-04T09:28:55.090Z,15.07
2018-10-04T09:29:55.074Z,15.01
2018-10-04T09:30:55.057Z,15.05
2018-10-04T09:31:55.058Z,15.05
2018-10-04T09:32:55.031Z,15.12
2018-10-04T09:33:55.013Z,15.17
2018-10-04T09:34:54.992Z,15.23
2018-10-04T09:35:54.981Z,15.30
2018-10-04T09:36:54.962Z,15.36
2018-10-04T09:37:54.956Z,15.43
2018-10-04T09:38:54.934Z,15.50
2018-10-04T09:39:54.925Z,15.54
2018-10-04T09:40:54.900Z,15.62
2018-10-04T09:41:54.884Z,15.66
2018-10-04T09:42:54.872Z,15.69
2018-10-04T09:43:54.857Z,15.69
2018-10-04T09:44:54.841Z,15.58
2018-10-04T09:45:54.825Z,15.44
2018-10-04T09:46:54.813Z,15.50
2018-10-04T09:47:54.792Z,15.59
2018-10-04T09:48:54.778Z,15.56
2018-10-04T09:49:54.761Z,15.58
2018-10-04T09:50:54.746Z,15.60
2018-10-04T09:51:54.732Z,15.50
2018-10-04T09:52:54.716Z,15.47
2018-10-04T09:53:54.795Z,15.44
2018-10-04T09:54:54.685Z,15.47
2018-10-04T09:55:54.672Z,15.36
2018-10-04T09:56:54.655Z,15.43
2018-10-04T09:57:54.641Z,15.45
2018-10-04T09:58:54.628Z,15.45
2018-10-04T09:59:54.709Z,15.41
2018-10-04T10:00:54.600Z,15.40
2018-10-04T10:01:54.583Z,15.43
2018-10-04T10:02:54.566Z,15.35
2018-10-04T10:03:54.555Z,15.35
2018-10-04T10:04:54.537Z,15.38
2018-10-04T10:05:54.521Z,15.26
2018-10-04T10:06:54.503Z,15.36
2018-10-04T10:07:54.492Z,15.35
2018-10-04T10:08:54.471Z,15.43
2018-10-04T10:09:54.457Z,15.33
2018-10-04T10:10:54.442Z,15.43
2018-10-04T10:11:54.508Z,15.32
2018-10-04T10:12:54.416Z,15.41
2018-10-04T10:13:54.405Z,15.45
2018-10-04T10:14:54.391Z,15.60
2018-10-04T10:15:54.365Z,15.44
2018-10-04T10:16:54.349Z,15.60
2018-10-04T10:17:54.338Z,15.51
2018-10-04T10:18:54.321Z,15.48
2018-10-04T10:19:54.305Z,15.54
2018-10-04T10:20:54.351Z,15.56
2018-10-04T10:21:54.270Z,15.50
2018-10-04T10:22:54.258Z,15.60
2018-10-04T10:23:54.247Z,15.52
2018-10-04T10:24:54.221Z,15.62
2018-10-04T10:25:54.205Z,15.58
2018-10-04T10:26:54.190Z,15.54
2018-10-04T10:27:54.176Z,15.59
2018-10-04T10:28:54.160Z,15.65
2018-10-04T10:29:54.146Z,15.63
2018-10-04T10:30:54.130Z,15.66
2018-10-04T10:31:54.113Z,15.63
2018-10-04T10:32:54.097Z,15.66
2018-10-04T10:33:54.081Z,15.63
2018-10-04T10:34:54.067Z,15.63
2018-10-04T10:35:54.053Z,15.68
2018-10-04T10:36:54.040Z,15.59
2018-10-04T10:37:54.023Z,15.56
2018-10-04T10:38:54.010Z,15.66
2018-10-04T10:39:54.001Z,15.65
2018-10-04T10:40:53.989Z,15.77
2018-10-04T10:41:53.961Z,15.76
2018-10-04T10:42:53.948Z,15.95
2018-10-04T10:43:53.932Z,15.91
2018-10-04T10:44:53.915Z,15.91
2018-10-04T10:45:53.899Z,15.91
2018-10-04T10:46:53.893Z,16.08
2018-10-04T10:47:53.878Z,16.08
2018-10-04T10:48:53.863Z,16.14
2018-10-04T10:49:53.844Z,16.06
2018-10-04T10:50:53.828Z,16.08
2018-10-04T10:51:53.813Z,16.13
2018-10-04T10:52:53.800Z,16.21
2018-10-04T10:53:53.781Z,16.18
2018-10-04T10:54:53.777Z,16.33
2018-10-04T10:55:53.749Z,16.34
2018-10-04T10:56:53.736Z,16.25
2018-10-04T10:57:53.725Z,16.28
2018-10-04T10:58:53.706Z,16.28
2018-10-04T10:59:53.690Z,16.29
2018-10-04T11:00:53.674Z,16.33
2018-10-04T11:01:53.660Z,16.29
2018-10-04T11:02:53.646Z,16.33
2018-10-04T11:03:53.630Z,16.36
2018-10-04T11:04:53.614Z,16.32
2018-10-04T11:05:53.603Z,16.42
2018-10-04T11:06:53.588Z,16.44
2018-10-04T11:07:53.580Z,16.43
2018-10-04T11:08:53.557Z,16.46
2018-10-04T11:09:53.591Z,16.49
2018-10-04T11:10:53.530Z,16.43
2018-10-04T11:11:53.520Z,16.43
2018-10-04T11:12:53.496Z,16.49
2018-10-04T11:13:53.491Z,16.49
2018-10-04T11:14:53.473Z,16.54
2018-10-04T11:15:53.456Z,16.59
2018-10-04T11:16:53.445Z,16.61
2018-10-04T11:17:53.511Z,16.58
2018-10-04T11:18:53.417Z,16.61
2018-10-04T11:19:53.405Z,16.67
2018-10-04T11:20:53.385Z,16.70
2018-10-04T11:21:53.367Z,16.61
2018-10-04T11:22:53.355Z,16.79
2018-10-04T11:23:53.336Z,16.76
2018-10-04T11:24:53.325Z,16.77
2018-10-04T11:25:53.308Z,16.70
2018-10-04T11:26:53.296Z,16.77
2018-10-04T11:27:53.278Z,16.70
2018-10-04T11:28:53.266Z,16.73
2018-10-04T11:29:53.256Z,16.82
2018-10-04T11:30:53.246Z,16.59
2018-10-04T11:31:53.226Z,16.73
2018-10-04T11:32:53.215Z,16.73
2018-10-04T11:33:53.190Z,16.76
2018-10-04T11:34:53.178Z,16.67
2018-10-04T11:35:53.170Z,16.83
2018-10-04T11:36:53.153Z,16.88
2018-10-04T11:37:53.142Z,16.97
2018-10-04T11:38:53.120Z,16.90
2018-10-04T11:39:53.106Z,16.84
2018-10-04T11:40:53.311Z,16.87
2018-10-04T11:41:53.080Z,16.83
2018-10-04T11:42:53.062Z,16.97
2018-10-04T11:43:53.048Z,16.97
2018-10-04T11:44:53.033Z,16.98
2018-10-04T11:45:53.019Z,16.90
2018-10-04T11:46:53.009Z,16.98
2018-10-04T11:47:52.991Z,17.13
2018-10-04T11:48:53.001Z,16.98
2018-10-04T11:49:52.962Z,17.12
2018-10-04T11:50:52.958Z,17.16
2018-10-04T11:51:52.936Z,17.22
2018-10-04T11:52:52.924Z,17.28
2018-10-04T11:53:52.904Z,17.39
2018-10-04T11:54:52.890Z,17.49
2018-10-04T11:55:52.877Z,17.56
2018-10-04T11:56:53.174Z,17.49
2018-10-04T11:57:52.858Z,17.49
2018-10-04T11:58:52.836Z,17.45
2018-10-04T11:59:52.829Z,17.53
2018-10-04T12:00:52.815Z,17.54
2018-10-04T12:01:52.794Z,17.59
2018-10-04T12:02:52.780Z,17.65
2018-10-04T12:03:52.768Z,17.75
2018-10-04T12:04:52.758Z,17.72
2018-10-04T12:05:52.748Z,17.78
2018-10-04T12:06:52.836Z,17.79
2018-10-04T12:07:52.726Z,17.79
2018-10-04T12:08:52.702Z,17.79
2018-10-04T12:09:52.682Z,18.02
2018-10-04T12:10:52.671Z,17.84
2018-10-04T12:11:52.658Z,17.90
2018-10-04T12:12:52.680Z,18.06
2018-10-04T12:13:52.632Z,18.11
2018-10-04T12:14:52.621Z,18.12
2018-10-04T12:15:52.604Z,18.23
2018-10-04T12:16:52.594Z,18.21
2018-10-04T12:17:52.582Z,18.18
2018-10-04T12:18:52.632Z,18.24
2018-10-04T12:19:52.557Z,18.27
2018-10-04T12:20:52.536Z,18.23
2018-10-04T12:21:52.523Z,18.26
2018-10-04T12:22:52.512Z,18.23
2018-10-04T12:23:52.499Z,18.26
2018-10-04T12:24:52.500Z,18.28
2018-10-04T12:25:52.476Z,18.41
2018-10-04T12:26:52.459Z,18.38
2018-10-04T12:27:52.443Z,18.48
2018-10-04T12:28:52.430Z,18.52
2018-10-04T12:29:52.425Z,18.58
2018-10-04T12:30:52.560Z,18.60
2018-10-04T12:31:52.392Z,18.75
2018-10-04T12:32:52.382Z,18.71
2018-10-04T12:33:52.365Z,18.81
2018-10-04T12:34:52.352Z,18.98
2018-10-04T12:35:52.666Z,19.12
2018-10-04T12:36:52.330Z,19.17
2018-10-04T12:37:52.317Z,19.39
2018-10-04T12:38:52.300Z,19.49
2018-10-04T12:39:52.287Z,19.42
2018-10-04T12:40:52.285Z,19.32
2018-10-04T12:41:52.261Z,19.22
2018-10-04T12:42:52.251Z,19.30
2018-10-04T12:43:52.289Z,19.31
2018-10-04T12:44:52.228Z,19.41
2018-10-04T12:45:52.213Z,19.47
2018-10-04T12:46:52.205Z,19.53
2018-10-04T12:47:52.198Z,19.39
2018-10-04T12:48:52.178Z,19.01
2018-10-04T12:49:52.167Z,19.00
2018-10-04T12:50:52.156Z,18.86
2018-10-04T12:51:52.142Z,18.94